Time;durP1;ratioP1;P1;durP2;ratioP2;P2;SDS_P1;SDS_P2;PMS_P1;PMS_P2;Temp;Humidity;BMP_temperature;BMP_pressure;BME280_temperature;BME280_humidity;BME280_pressure;Samples;Min_cycle;Max_cycle;Signal;HPM_P1;HPM_P2
2024/04/13 00:02:27;;;;;;;9.07;3.75;;;9.80;99.90;;;;;;22550522;26;20178;-39
2024/04/13 00:12:28;;;;;;;5.88;3.30;;;9.70;99.90;;;;;;22670407;26;20030;-39
2024/04/13 00:22:30;;;;;;;11.38;4.60;;;9.60;99.90;;;;;;22700365;26;20030;-39
2024/04/13 00:32:32;;;;;;;8.88;4.57;;;9.50;99.90;;;;;;22060212;26;20001;-39
2024/04/13 00:42:34;;;;;;;9.75;6.28;;;9.40;99.90;;;;;;22210044;26;20005;-39
2024/04/13 00:52:41;;;;;;;10.38;4.90;;;9.30;99.90;;;;;;22140173;26;20004;-39
2024/04/13 01:02:44;;;;;;;8.77;4.82;;;9.40;99.90;;;;;;22375603;26;20032;-38
2024/04/13 01:12:47;;;;;;;8.00;4.97;;;9.40;99.90;;;;;;22472903;26;20035;-39
2024/04/13 01:22:49;;;;;;;7.85;4.68;;;9.40;99.90;;;;;;22484434;26;20022;-38
2024/04/13 01:32:51;;;;;;;9.77;4.00;;;9.40;99.90;;;;;;22638731;26;20030;-39
2024/04/13 01:42:53;;;;;;;8.68;2.95;;;9.40;99.90;;;;;;22710925;26;20038;-38
2024/04/13 01:52:55;;;;;;;5.13;3.28;;;9.40;99.90;;;;;;22626504;26;20030;-39
2024/04/13 02:02:56;;;;;;;7.07;3.40;;;9.60;99.90;;;;;;22497226;26;20006;-39
2024/04/13 02:12:58;;;;;;;10.60;4.13;;;9.60;99.90;;;;;;22568776;26;20031;-40
2024/04/13 02:23:04;;;;;;;7.90;3.92;;;9.60;99.90;;;;;;22576681;26;20026;-38
2024/04/13 02:33:06;;;;;;;5.68;2.60;;;9.60;99.90;;;;;;22471126;26;20081;-39
2024/04/13 02:43:11;;;;;;;5.82;2.83;;;9.30;99.90;;;;;;22591075;26;20026;-39
2024/04/13 02:53:13;;;;;;;7.47;3.03;;;9.20;99.90;;;;;;22653326;26;20479;-38
2024/04/13 03:03:15;;;;;;;6.53;2.92;;;9.20;99.90;;;;;;22706018;26;20030;-40
2024/04/13 03:13:21;;;;;;;6.28;3.33;;;9.40;99.90;;;;;;22635900;26;20088;-39
2024/04/13 03:23:24;;;;;;;5.38;3.40;;;9.50;99.90;;;;;;22581086;26;20026;-39
2024/04/13 03:33:26;;;;;;;6.25;3.50;;;9.50;99.90;;;;;;22537972;26;20027;-39
2024/04/13 03:43:28;;;;;;;6.53;3.85;;;9.40;99.90;;;;;;22687141;26;20568;-39
2024/04/13 03:53:31;;;;;;;8.65;3.83;;;9.50;99.90;;;;;;22575170;26;20038;-41
2024/04/13 04:03:33;;;;;;;11.77;4.30;;;9.60;99.90;;;;;;22702484;26;20030;-38
2024/04/13 04:13:35;;;;;;;5.70;2.67;;;9.40;99.90;;;;;;22701739;26;20045;-39
2024/04/13 04:23:36;;;;;;;7.30;3.13;;;9.20;99.90;;;;;;22646415;26;20542;-38
2024/04/13 04:33:38;;;;;;;5.35;3.28;;;9.40;99.90;;;;;;22549914;26;20031;-39
2024/04/13 04:43:41;;;;;;;6.85;3.13;;;9.30;99.90;;;;;;22692997;26;20029;-39
2024/04/13 04:53:42;;;;;;;11.90;3.85;;;9.30;99.90;;;;;;22599786;26;20034;-41
2024/04/13 05:03:45;;;;;;;5.70;3.03;;;9.50;99.90;;;;;;22558363;26;20062;-39
2024/04/13 05:13:47;;;;;;;6.97;3.60;;;9.60;99.90;;;;;;22546564;26;20035;-41
2024/04/13 05:23:49;;;;;;;7.15;4.13;;;9.90;99.90;;;;;;22560305;26;20030;-39
2024/04/13 05:33:51;;;;;;;7.90;4.80;;;9.90;99.90;;;;;;22453709;26;20082;-41
2024/04/13 05:43:53;;;;;;;10.23;4.90;;;10.20;99.90;;;;;;22641040;26;20047;-39
2024/04/13 05:53:54;;;;;;;7.13;3.75;;;10.60;99.90;;;;;;22560507;26;20387;-40
2024/04/13 06:03:56;;;;;;;8.20;4.22;;;11.10;99.90;;;;;;22560350;26;20034;-38
2024/04/13 06:13:58;;;;;;;7.28;3.88;;;11.70;99.90;;;;;;22557209;26;20027;-41
2024/04/13 06:24:03;;;;;;;7.15;3.90;;;12.30;99.90;;;;;;22557284;26;20050;-40
2024/04/13 06:34:04;;;;;;;6.25;3.85;;;12.80;99.90;;;;;;22557681;26;20038;-43
2024/04/13 06:44:07;;;;;;;7.18;3.47;;;13.30;99.90;;;;;;22557692;26;20031;-42
2024/04/13 06:54:12;;;;;;;3.92;2.83;;;14.20;99.90;;;;;;22557761;26;20089;-44
2024/04/13 07:04:13;;;;;;;7.55;3.40;;;15.50;99.90;;;;;;22554099;26;20027;-43
2024/04/13 07:14:16;;;;;;;7.07;3.40;;;16.40;99.90;;;;;;22631236;26;20038;-43
2024/04/13 07:24:19;;;;;;;6.60;3.20;;;17.40;99.90;;;;;;22528734;26;20034;-47
2024/04/13 07:34:21;;;;;;;6.53;2.55;;;18.30;99.90;;;;;;22550453;26;20074;-47
2024/04/13 07:44:24;;;;;;;5.28;2.88;;;19.10;99.90;;;;;;22551304;26;20006;-43
2024/04/13 07:54:26;;;;;;;6.22;2.10;;;19.70;99.90;;;;;;22625358;26;20026;-42
2024/04/13 08:04:28;;;;;;;4.78;2.00;;;19.90;98.70;;;;;;22684394;26;20145;-44
2024/04/13 08:14:30;;;;;;;4.43;1.95;;;20.60;98.20;;;;;;22549775;26;20101;-42
2024/04/13 08:24:32;;;;;;;6.07;2.20;;;20.90;97.50;;;;;;22549404;26;20079;-42
2024/04/13 08:34:34;;;;;;;5.43;1.83;;;21.00;96.60;;;;;;22528124;26;20027;-43
2024/04/13 08:44:38;;;;;;;5.07;1.70;;;21.00;93.70;;;;;;22557234;26;20035;-42
2024/04/13 08:54:40;;;;;;;4.95;1.65;;;21.40;95.70;;;;;;22559531;26;20031;-42
2024/04/13 09:04:42;;;;;;;6.22;1.95;;;21.70;93.80;;;;;;22555830;26;20093;-43
2024/04/13 09:14:44;;;;;;;5.05;1.60;;;22.10;95.60;;;;;;22558402;26;20042;-44
2024/04/13 09:24:46;;;;;;;2.92;1.85;;;22.30;94.80;;;;;;22562392;26;20031;-43
2024/04/13 09:34:48;;;;;;;3.83;1.80;;;22.70;95.40;;;;;;22556426;26;20035;-45
2024/04/13 09:44:50;;;;;;;6.70;1.98;;;22.80;95.60;;;;;;22559892;26;20612;-45
2024/04/13 09:54:59;;;;;;;8.35;2.22;;;22.70;94.40;;;;;;22561067;26;20063;-43
2024/04/13 10:05:04;;;;;;;4.25;2.70;;;22.80;94.30;;;;;;22553489;26;20035;-41
2024/04/13 10:15:08;;;;;;;5.10;2.83;;;23.00;96.60;;;;;;22555162;26;20032;-42
2024/04/13 10:25:13;;;;;;;5.88;3.10;;;23.00;95.50;;;;;;22642575;26;20026;-43
2024/04/13 10:35:16;;;;;;;4.65;3.20;;;23.00;97.20;;;;;;22587888;26;20030;-43
2024/04/13 10:45:19;;;;;;;5.85;3.70;;;23.00;97.20;;;;;;22550441;26;20039;-43
2024/04/13 10:55:28;;;;;;;10.05;4.30;;;23.00;96.70;;;;;;22550836;26;20093;-45
2024/04/13 11:05:30;;;;;;;6.75;3.60;;;23.10;96.00;;;;;;22571212;26;20545;-42
2024/04/13 11:15:32;;;;;;;6.82;3.97;;;23.10;98.40;;;;;;22549981;26;20480;-43
2024/04/13 11:25:34;;;;;;;13.48;5.30;;;23.10;98.20;;;;;;22550312;26;20383;-45
2024/04/13 11:35:36;;;;;;;7.72;5.20;;;23.10;97.30;;;;;;22551838;26;20078;-44
2024/04/13 11:45:38;;;;;;;7.40;4.75;;;23.00;95.90;;;;;;22550428;26;20443;-43
2024/04/13 11:55:40;;;;;;;6.68;4.57;;;23.10;98.20;;;;;;22549222;26;20379;-41
2024/04/13 12:05:42;;;;;;;9.05;5.88;;;23.30;98.80;;;;;;22546135;26;20034;-41
2024/04/13 12:15:44;;;;;;;6.90;5.15;;;23.50;98.70;;;;;;22541752;26;20097;-41
2024/04/13 12:25:46;;;;;;;9.18;6.45;;;23.30;98.80;;;;;;22548401;26;20031;-41
2024/04/13 12:35:48;;;;;;;12.63;7.65;;;23.30;97.00;;;;;;22565435;26;20547;-42
2024/04/13 12:45:50;;;;;;;10.45;8.77;;;23.30;98.90;;;;;;22544593;26;20034;-42
2024/04/13 12:55:52;;;;;;;10.93;7.35;;;23.30;98.90;;;;;;22550138;26;20027;-41
2024/04/13 13:05:57;;;;;;;10.70;7.40;;;23.10;98.50;;;;;;22554842;26;20038;-41
2024/04/13 13:15:59;;;;;;;13.20;7.65;;;23.30;99.60;;;;;;22556617;26;20030;-42
2024/04/13 13:26:01;;;;;;;11.10;7.68;;;23.50;98.00;;;;;;22561148;26;20053;-44
2024/04/13 13:36:03;;;;;;;14.25;8.05;;;23.40;97.80;;;;;;22566272;26;20092;-43
2024/04/13 13:46:08;;;;;;;12.05;7.80;;;23.40;97.20;;;;;;22559411;26;20043;-42
2024/04/13 13:56:09;;;;;;;8.45;6.03;;;23.40;95.90;;;;;;22561865;26;20040;-42
2024/04/13 14:06:11;;;;;;;9.35;6.03;;;23.30;97.50;;;;;;22557889;26;20041;-42
2024/04/13 14:16:13;;;;;;;6.03;4.97;;;23.40;97.30;;;;;;22560381;26;20030;-42
2024/04/13 14:26:15;;;;;;;9.60;4.40;;;23.10;96.80;;;;;;22555456;26;20027;-47
2024/04/13 14:36:17;;;;;;;8.63;4.07;;;23.10;97.00;;;;;;22420794;26;20485;-43
2024/04/13 14:46:22;;;;;;;6.72;3.78;;;23.20;97.20;;;;;;22394357;26;20149;-42
2024/04/13 14:56:24;;;;;;;7.00;4.97;;;22.70;96.60;;;;;;22406463;26;20123;-42
2024/04/13 15:06:26;;;;;;;11.15;4.93;;;22.60;95.20;;;;;;22398167;26;20003;-43
2024/04/13 15:16:27;;;;;;;7.22;4.82;;;21.60;96.00;;;;;;22398734;26;20384;-43
2024/04/13 15:26:29;;;;;;;7.18;5.35;;;20.80;98.60;;;;;;22404644;26;20485;-41
2024/04/13 15:36:34;;;;;;;6.85;5.18;;;20.10;99.90;;;;;;22533620;26;20074;-42
2024/04/13 15:46:36;;;;;;;6.85;5.03;;;19.10;99.90;;;;;;22551056;26;20551;-41
2024/04/13 15:56:38;;;;;;;8.27;6.40;;;19.00;99.90;;;;;;22549630;26;20047;-41
2024/04/13 16:06:41;;;;;;;8.57;5.05;;;18.70;99.90;;;;;;22544657;26;20070;-41
2024/04/13 16:16:43;;;;;;;6.18;4.80;;;18.30;99.90;;;;;;22545098;26;20026;-39
2024/04/13 16:26:44;;;;;;;6.47;4.53;;;17.30;99.90;;;;;;22549595;26;20542;-40
2024/04/13 16:36:46;;;;;;;7.55;4.65;;;16.30;99.90;;;;;;22585247;26;20030;-40
2024/04/13 16:46:49;;;;;;;6.93;4.55;;;15.70;99.90;;;;;;22552581;26;20031;-40
2024/04/13 16:56:51;;;;;;;7.82;4.45;;;15.20;99.90;;;;;;22572085;26;20023;-40
2024/04/13 17:06:53;;;;;;;5.40;4.05;;;14.70;99.90;;;;;;22596860;26;20182;-39
2024/04/13 17:16:55;;;;;;;7.10;4.55;;;14.40;99.90;;;;;;22575262;26;20088;-40
2024/04/13 17:26:56;;;;;;;7.97;4.63;;;14.10;99.90;;;;;;22660897;26;20087;-38
2024/04/13 17:36:58;;;;;;;8.82;4.65;;;14.00;99.90;;;;;;22597468;26;20804;-39
2024/04/13 17:47:01;;;;;;;10.45;4.75;;;13.50;99.90;;;;;;22616187;26;20038;-39
2024/04/13 17:57:04;;;;;;;8.32;4.45;;;13.20;99.90;;;;;;22605129;26;20046;-39
2024/04/13 18:07:06;;;;;;;7.90;4.55;;;12.90;99.90;;;;;;22577367;26;20039;-39
2024/04/13 18:17:07;;;;;;;6.97;3.33;;;12.60;99.90;;;;;;22557566;26;20921;-40
2024/04/13 18:27:13;;;;;;;5.65;3.20;;;12.50;99.90;;;;;;22672427;26;20100;-39
2024/04/13 18:37:15;;;;;;;6.07;3.28;;;12.30;99.90;;;;;;22674530;26;20033;-39
2024/04/13 18:47:19;;;;;;;11.05;5.07;;;12.20;99.90;;;;;;22686417;26;20348;-40
2024/04/13 18:57:24;;;;;;;11.40;4.00;;;12.10;99.90;;;;;;22628090;26;20070;-40
2024/04/13 19:07:26;;;;;;;11.75;6.63;;;12.10;99.90;;;;;;22593108;26;20544;-39
2024/04/13 19:17:28;;;;;;;8.02;4.25;;;12.20;99.90;;;;;;22671735;26;20476;-39
2024/04/13 19:27:30;;;;;;;5.80;3.78;;;12.00;99.90;;;;;;22703162;26;20034;-40
2024/04/13 19:37:32;;;;;;;6.82;3.53;;;11.90;99.90;;;;;;22657217;26;20480;-39
2024/04/13 19:47:34;;;;;;;7.53;4.25;;;12.00;99.90;;;;;;22678815;26;20070;-39
2024/04/13 19:57:38;;;;;;;8.85;3.83;;;12.00;99.90;;;;;;22673374;26;20025;-39
2024/04/13 20:07:40;;;;;;;7.80;3.08;;;11.90;99.90;;;;;;22674173;26;20026;-39
2024/04/13 20:28:02;;;;;;;4.50;2.45;;;12.00;99.90;;;;;;22712883;26;20034;-40
2024/04/13 20:38:04;;;;;;;6.18;2.90;;;12.30;99.90;;;;;;22710646;26;20030;-39
2024/04/13 20:48:07;;;;;;;3.53;2.30;;;12.30;99.90;;;;;;22611181;26;20101;-39
2024/04/13 20:58:12;;;;;;;5.70;2.80;;;12.10;99.90;;;;;;22689851;26;20030;-39
2024/04/13 21:08:15;;;;;;;5.70;2.70;;;12.70;99.90;;;;;;22710455;26;20030;-39
2024/04/13 21:18:17;;;;;;;5.03;2.95;;;12.00;99.90;;;;;;22710477;26;20042;-39
2024/04/13 21:28:19;;;;;;;6.68;2.70;;;11.80;99.90;;;;;;22706303;26;20483;-39
2024/04/13 21:38:21;;;;;;;5.00;2.83;;;11.70;99.90;;;;;;22665245;26;20038;-39
2024/04/13 21:48:23;;;;;;;6.20;3.08;;;11.70;99.90;;;;;;22675109;26;20031;-39
2024/04/13 21:58:25;;;;;;;2.67;2.03;;;11.60;99.90;;;;;;22693039;26;20487;-39
2024/04/13 22:08:27;;;;;;;4.97;2.22;;;11.60;99.90;;;;;;22682240;26;20022;-39
2024/04/13 22:18:28;;;;;;;5.18;2.90;;;11.50;99.90;;;;;;22626232;26;20488;-40
2024/04/13 22:28:30;;;;;;;6.22;2.80;;;11.40;99.90;;;;;;22566543;26;20550;-40
2024/04/13 22:38:32;;;;;;;4.75;1.90;;;11.30;99.90;;;;;;22585947;26;20066;-40
2024/04/13 22:48:34;;;;;;;5.55;2.83;;;11.30;99.90;;;;;;22556564;26;20093;-39
2024/04/13 22:58:36;;;;;;;6.57;2.55;;;11.50;99.90;;;;;;22633602;26;20113;-39
2024/04/13 23:08:38;;;;;;;7.85;2.47;;;11.30;99.90;;;;;;22584718;26;20022;-40
2024/04/13 23:18:40;;;;;;;7.20;2.40;;;11.40;99.90;;;;;;22665164;26;20050;-37
2024/04/13 23:28:45;;;;;;;3.78;2.03;;;11.10;99.90;;;;;;22692309;26;20026;-37
2024/04/13 23:38:46;;;;;;;4.25;2.50;;;10.80;99.90;;;;;;22703604;26;20365;-42
2024/04/13 23:48:48;;;;;;;3.65;1.75;;;10.80;99.90;;;;;;22320583;26;20000;-39
2024/04/13 23:58:54;;;;;;;5.43;2.17;;;11.20;99.90;;;;;;22287347;26;20142;-39
